sensor_id;sensor_type;location;lat;lon;timestamp;temperature;humidity
4090;DHT22;2059;48.538;12.146;2022-11-20T00:00:40;7.10;99.90
4090;DHT22;2059;48.538;12.146;2022-11-20T00:05:41;7.10;99.90
4090;DHT22;2059;48.538;12.146;2022-11-20T00:10:45;7.20;99.90
4090;DHT22;2059;48.538;12.146;2022-11-20T00:15:46;7.30;99.90
4090;DHT22;2059;48.538;12.146;2022-11-20T00:20:48;7.20;99.90
4090;DHT22;2059;48.538;12.146;2022-11-20T00:25:51;7.20;99.90
4090;DHT22;2059;48.538;12.146;2022-11-20T00:31:00;7.30;99.90
4090;DHT22;2059;48.538;12.146;2022-11-20T00:36:03;7.40;99.90
4090;DHT22;2059;48.538;12.146;2022-11-20T00:41:08;7.30;99.90
4090;DHT22;2059;48.538;12.146;2022-11-20T00:46:12;7.40;99.90
4090;DHT22;2059;48.538;12.146;2022-11-20T00:51:17;7.40;99.90
4090;DHT22;2059;48.538;12.146;2022-11-20T00:56:20;7.40;99.90
4090;DHT22;2059;48.538;12.146;2022-11-20T01:01:24;7.60;99.90
4090;DHT22;2059;48.538;12.146;2022-11-20T01:06:28;7.60;99.90
4090;DHT22;2059;48.538;12.146;2022-11-20T01:11:34;7.60;99.90
4090;DHT22;2059;48.538;12.146;2022-11-20T01:16:37;7.60;99.90
4090;DHT22;2059;48.538;12.146;2022-11-20T01:21:41;7.50;99.90
4090;DHT22;2059;48.538;12.146;2022-11-20T01:26:46;7.50;99.90
4090;DHT22;2059;48.538;12.146;2022-11-20T01:31:48;7.40;99.90
4090;DHT22;2059;48.538;12.146;2022-11-20T01:36:50;7.40;99.90
4090;DHT22;2059;48.538;12.146;2022-11-20T01:41:55;7.20;99.90
4090;DHT22;2059;48.538;12.146;2022-11-20T01:47:19;7.10;99.90
4090;DHT22;2059;48.538;12.146;2022-11-20T01:52:24;6.90;99.90
4090;DHT22;2059;48.538;12.146;2022-11-20T01:57:32;6.90;99.90
4090;DHT22;2059;48.538;12.146;2022-11-20T02:02:35;7.00;99.90
4090;DHT22;2059;48.538;12.146;2022-11-20T02:07:38;7.00;99.90
4090;DHT22;2059;48.538;12.146;2022-11-20T02:12:41;7.20;99.90
4090;DHT22;2059;48.538;12.146;2022-11-20T02:18:01;7.20;99.90
4090;DHT22;2059;48.538;12.146;2022-11-20T02:23:08;7.10;99.90
4090;DHT22;2059;48.538;12.146;2022-11-20T02:28:13;7.30;99.90
4090;DHT22;2059;48.538;12.146;2022-11-20T02:33:15;7.30;99.90
4090;DHT22;2059;48.538;12.146;2022-11-20T02:38:17;7.20;99.90
4090;DHT22;2059;48.538;12.146;2022-11-20T02:43:21;7.30;99.90
4090;DHT22;2059;48.538;12.146;2022-11-20T02:48:22;7.30;99.90
4090;DHT22;2059;48.538;12.146;2022-11-20T02:53:24;7.20;99.90
4090;DHT22;2059;48.538;12.146;2022-11-20T02:58:27;7.30;99.90
4090;DHT22;2059;48.538;12.146;2022-11-20T03:03:29;7.40;99.90
4090;DHT22;2059;48.538;12.146;2022-11-20T03:08:31;7.30;99.90
4090;DHT22;2059;48.538;12.146;2022-11-20T03:13:35;7.40;99.90
4090;DHT22;2059;48.538;12.146;2022-11-20T03:18:37;7.50;99.90
4090;DHT22;2059;48.538;12.146;2022-11-20T03:23:39;7.50;99.90
4090;DHT22;2059;48.538;12.146;2022-11-20T03:28:47;7.60;99.90
4090;DHT22;2059;48.538;12.146;2022-11-20T03:33:49;7.70;99.90
4090;DHT22;2059;48.538;12.146;2022-11-20T03:38:53;7.70;99.90
4090;DHT22;2059;48.538;12.146;2022-11-20T03:43:58;7.70;99.90
4090;DHT22;2059;48.538;12.146;2022-11-20T03:49:00;7.60;99.90
4090;DHT22;2059;48.538;12.146;2022-11-20T03:54:05;7.60;99.90
4090;DHT22;2059;48.538;12.146;2022-11-20T03:59:10;7.60;99.90
4090;DHT22;2059;48.538;12.146;2022-11-20T04:04:11;7.70;99.90
4090;DHT22;2059;48.538;12.146;2022-11-20T04:09:13;7.70;99.90
4090;DHT22;2059;48.538;12.146;2022-11-20T04:14:17;7.70;99.90
4090;DHT22;2059;48.538;12.146;2022-11-20T04:19:19;7.70;99.90
4090;DHT22;2059;48.538;12.146;2022-11-20T04:24:21;7.80;99.90
4090;DHT22;2059;48.538;12.146;2022-11-20T04:29:24;7.80;99.90
4090;DHT22;2059;48.538;12.146;2022-11-20T04:34:26;7.80;99.90
4090;DHT22;2059;48.538;12.146;2022-11-20T04:39:27;7.70;99.90
4090;DHT22;2059;48.538;12.146;2022-11-20T04:44:30;7.70;99.90
4090;DHT22;2059;48.538;12.146;2022-11-20T04:49:32;7.60;99.90
4090;DHT22;2059;48.538;12.146;2022-11-20T04:54:34;7.60;99.90
4090;DHT22;2059;48.538;12.146;2022-11-20T04:59:37;7.60;99.90
4090;DHT22;2059;48.538;12.146;2022-11-20T05:04:39;7.70;99.90
4090;DHT22;2059;48.538;12.146;2022-11-20T05:09:41;7.50;99.90
4090;DHT22;2059;48.538;12.146;2022-11-20T05:14:44;7.60;99.90
4090;DHT22;2059;48.538;12.146;2022-11-20T05:19:46;7.50;99.90
4090;DHT22;2059;48.538;12.146;2022-11-20T05:24:48;7.60;99.90
4090;DHT22;2059;48.538;12.146;2022-11-20T05:29:51;7.60;99.90
4090;DHT22;2059;48.538;12.146;2022-11-20T05:34:52;7.50;99.90
4090;DHT22;2059;48.538;12.146;2022-11-20T05:39:54;7.50;99.90
4090;DHT22;2059;48.538;12.146;2022-11-20T05:44:58;7.40;99.90
4090;DHT22;2059;48.538;12.146;2022-11-20T05:50:00;7.40;99.90
4090;DHT22;2059;48.538;12.146;2022-11-20T05:55:02;7.40;99.90
4090;DHT22;2059;48.538;12.146;2022-11-20T06:00:06;7.50;99.90
4090;DHT22;2059;48.538;12.146;2022-11-20T06:05:08;7.40;99.90
4090;DHT22;2059;48.538;12.146;2022-11-20T06:10:10;7.30;99.90
4090;DHT22;2059;48.538;12.146;2022-11-20T06:15:14;7.30;99.90
4090;DHT22;2059;48.538;12.146;2022-11-20T06:20:15;7.40;99.90
4090;DHT22;2059;48.538;12.146;2022-11-20T06:25:17;7.30;99.90
4090;DHT22;2059;48.538;12.146;2022-11-20T06:30:20;7.40;99.90
4090;DHT22;2059;48.538;12.146;2022-11-20T06:35:22;7.40;99.90
4090;DHT22;2059;48.538;12.146;2022-11-20T06:40:24;7.50;99.90
4090;DHT22;2059;48.538;12.146;2022-11-20T06:45:27;7.40;99.90
4090;DHT22;2059;48.538;12.146;2022-11-20T06:50:29;7.40;99.90
4090;DHT22;2059;48.538;12.146;2022-11-20T06:55:31;7.40;99.90
4090;DHT22;2059;48.538;12.146;2022-11-20T07:00:34;7.50;99.90
4090;DHT22;2059;48.538;12.146;2022-11-20T07:05:37;7.50;99.90
4090;DHT22;2059;48.538;12.146;2022-11-20T07:10:39;7.50;99.90
4090;DHT22;2059;48.538;12.146;2022-11-20T07:15:42;7.60;99.90
4090;DHT22;2059;48.538;12.146;2022-11-20T07:20:44;7.70;99.90
4090;DHT22;2059;48.538;12.146;2022-11-20T07:25:46;7.50;99.90
4090;DHT22;2059;48.538;12.146;2022-11-20T07:30:53;7.60;99.90
4090;DHT22;2059;48.538;12.146;2022-11-20T07:35:55;7.70;99.90
4090;DHT22;2059;48.538;12.146;2022-11-20T07:40:57;7.70;99.90
4090;DHT22;2059;48.538;12.146;2022-11-20T07:46:03;7.80;99.90
4090;DHT22;2059;48.538;12.146;2022-11-20T07:51:05;7.80;99.90
4090;DHT22;2059;48.538;12.146;2022-11-20T07:56:07;7.90;99.90
4090;DHT22;2059;48.538;12.146;2022-11-20T08:01:10;7.80;99.90
4090;DHT22;2059;48.538;12.146;2022-11-20T08:06:12;7.80;99.90
4090;DHT22;2059;48.538;12.146;2022-11-20T08:11:15;7.80;99.90
4090;DHT22;2059;48.538;12.146;2022-11-20T08:16:36;7.90;99.90
4090;DHT22;2059;48.538;12.146;2022-11-20T08:21:38;8.10;99.90
4090;DHT22;2059;48.538;12.146;2022-11-20T08:26:40;8.30;99.90
4090;DHT22;2059;48.538;12.146;2022-11-20T08:31:43;8.40;99.90
4090;DHT22;2059;48.538;12.146;2022-11-20T08:36:45;8.50;99.90
4090;DHT22;2059;48.538;12.146;2022-11-20T08:41:47;8.60;99.90
4090;DHT22;2059;48.538;12.146;2022-11-20T08:46:50;8.50;99.90
4090;DHT22;2059;48.538;12.146;2022-11-20T08:51:52;8.60;99.90
4090;DHT22;2059;48.538;12.146;2022-11-20T08:56:55;8.70;99.90
4090;DHT22;2059;48.538;12.146;2022-11-20T09:01:58;8.50;99.90
4090;DHT22;2059;48.538;12.146;2022-11-20T09:07:00;8.40;99.90
4090;DHT22;2059;48.538;12.146;2022-11-20T09:12:02;8.50;99.90
4090;DHT22;2059;48.538;12.146;2022-11-20T09:17:05;8.90;99.90
4090;DHT22;2059;48.538;12.146;2022-11-20T09:22:08;8.80;99.90
4090;DHT22;2059;48.538;12.146;2022-11-20T09:27:10;8.80;99.90
4090;DHT22;2059;48.538;12.146;2022-11-20T09:32:13;8.40;99.90
4090;DHT22;2059;48.538;12.146;2022-11-20T09:37:15;8.50;99.90
4090;DHT22;2059;48.538;12.146;2022-11-20T09:42:34;8.50;99.90
4090;DHT22;2059;48.538;12.146;2022-11-20T09:47:51;8.40;99.90
4090;DHT22;2059;48.538;12.146;2022-11-20T09:53:11;8.50;99.90
4090;DHT22;2059;48.538;12.146;2022-11-20T09:58:24;8.90;99.90
4090;DHT22;2059;48.538;12.146;2022-11-20T10:03:37;9.00;99.90
4090;DHT22;2059;48.538;12.146;2022-11-20T10:08:45;9.20;99.90
4090;DHT22;2059;48.538;12.146;2022-11-20T10:13:56;9.60;99.90
4090;DHT22;2059;48.538;12.146;2022-11-20T10:19:20;9.90;99.90
4090;DHT22;2059;48.538;12.146;2022-11-20T10:24:42;9.70;99.90
4090;DHT22;2059;48.538;12.146;2022-11-20T10:29:58;9.60;99.90
4090;DHT22;2059;48.538;12.146;2022-11-20T10:35:06;9.60;99.90
4090;DHT22;2059;48.538;12.146;2022-11-20T10:40:20;9.70;99.90
4090;DHT22;2059;48.538;12.146;2022-11-20T10:51:10;9.50;99.90
4090;DHT22;2059;48.538;12.146;2022-11-20T10:56:19;9.40;99.90
4090;DHT22;2059;48.538;12.146;2022-11-20T11:01:21;9.50;99.90
4090;DHT22;2059;48.538;12.146;2022-11-20T11:06:29;9.70;99.90
4090;DHT22;2059;48.538;12.146;2022-11-20T11:11:34;9.80;99.90
4090;DHT22;2059;48.538;12.146;2022-11-20T11:16:49;10.00;99.60
4090;DHT22;2059;48.538;12.146;2022-11-20T11:26:57;9.40;99.90
4090;DHT22;2059;48.538;12.146;2022-11-20T11:55:09;10.20;99.50
4090;DHT22;2059;48.538;12.146;2022-11-20T12:00:15;10.20;99.50
4090;DHT22;2059;48.538;12.146;2022-11-20T12:05:19;10.10;99.30
4090;DHT22;2059;48.538;12.146;2022-11-20T12:10:38;9.90;99.90
4090;DHT22;2059;48.538;12.146;2022-11-20T12:15:44;9.90;99.90
4090;DHT22;2059;48.538;12.146;2022-11-20T12:20:57;9.90;99.80
4090;DHT22;2059;48.538;12.146;2022-11-20T12:26:07;9.80;99.50
4090;DHT22;2059;48.538;12.146;2022-11-20T12:31:35;10.00;99.20
4090;DHT22;2059;48.538;12.146;2022-11-20T12:36:43;9.80;99.70
4090;DHT22;2059;48.538;12.146;2022-11-20T12:42:25;9.70;99.90
4090;DHT22;2059;48.538;12.146;2022-11-20T12:48:23;9.70;99.90
4090;DHT22;2059;48.538;12.146;2022-11-20T12:53:35;9.10;99.90
4090;DHT22;2059;48.538;12.146;2022-11-20T12:58:48;9.00;99.90
4090;DHT22;2059;48.538;12.146;2022-11-20T13:03:56;9.00;99.90
4090;DHT22;2059;48.538;12.146;2022-11-20T13:09:02;9.00;99.90
4090;DHT22;2059;48.538;12.146;2022-11-20T13:14:14;8.80;99.90
4090;DHT22;2059;48.538;12.146;2022-11-20T13:19:18;8.70;99.90
4090;DHT22;2059;48.538;12.146;2022-11-20T13:24:23;8.80;99.90
4090;DHT22;2059;48.538;12.146;2022-11-20T13:29:28;9.00;99.90
4090;DHT22;2059;48.538;12.146;2022-11-20T13:34:30;8.90;99.90
4090;DHT22;2059;48.538;12.146;2022-11-20T13:39:34;8.70;99.90
4090;DHT22;2059;48.538;12.146;2022-11-20T13:44:42;8.70;99.90
4090;DHT22;2059;48.538;12.146;2022-11-20T13:49:44;8.90;99.90
4090;DHT22;2059;48.538;12.146;2022-11-20T13:54:58;8.60;99.90
4090;DHT22;2059;48.538;12.146;2022-11-20T14:00:11;8.60;99.90
4090;DHT22;2059;48.538;12.146;2022-11-20T14:05:22;8.50;99.90
4090;DHT22;2059;48.538;12.146;2022-11-20T14:10:27;8.30;99.90
4090;DHT22;2059;48.538;12.146;2022-11-20T14:15:33;8.60;99.90
4090;DHT22;2059;48.538;12.146;2022-11-20T14:20:38;8.70;99.90
4090;DHT22;2059;48.538;12.146;2022-11-20T14:25:42;8.50;99.90
4090;DHT22;2059;48.538;12.146;2022-11-20T14:30:48;8.40;99.90
4090;DHT22;2059;48.538;12.146;2022-11-20T14:35:52;8.30;99.90
4090;DHT22;2059;48.538;12.146;2022-11-20T14:41:06;8.30;99.90
4090;DHT22;2059;48.538;12.146;2022-11-20T14:46:10;8.10;99.90
4090;DHT22;2059;48.538;12.146;2022-11-20T14:51:23;8.00;99.90
4090;DHT22;2059;48.538;12.146;2022-11-20T14:56:27;7.90;99.90
4090;DHT22;2059;48.538;12.146;2022-11-20T15:01:31;8.10;99.90
4090;DHT22;2059;48.538;12.146;2022-11-20T15:06:34;8.30;99.90
4090;DHT22;2059;48.538;12.146;2022-11-20T15:11:36;7.80;99.90
4090;DHT22;2059;48.538;12.146;2022-11-20T15:16:39;8.10;99.90
4090;DHT22;2059;48.538;12.146;2022-11-20T15:21:42;8.20;99.90
4090;DHT22;2059;48.538;12.146;2022-11-20T15:26:44;8.20;99.90
4090;DHT22;2059;48.538;12.146;2022-11-20T15:31:47;8.00;99.90
4090;DHT22;2059;48.538;12.146;2022-11-20T15:36:51;8.20;99.90
4090;DHT22;2059;48.538;12.146;2022-11-20T15:41:53;8.10;99.90
4090;DHT22;2059;48.538;12.146;2022-11-20T15:46:56;7.90;99.90
4090;DHT22;2059;48.538;12.146;2022-11-20T15:51:58;7.90;99.90
4090;DHT22;2059;48.538;12.146;2022-11-20T15:57:00;7.60;99.90
4090;DHT22;2059;48.538;12.146;2022-11-20T16:02:09;7.50;99.90
4090;DHT22;2059;48.538;12.146;2022-11-20T16:07:12;7.70;99.90
4090;DHT22;2059;48.538;12.146;2022-11-20T16:12:14;7.40;99.90
4090;DHT22;2059;48.538;12.146;2022-11-20T16:17:38;7.30;99.90
4090;DHT22;2059;48.538;12.146;2022-11-20T16:22:44;7.50;99.90
4090;DHT22;2059;48.538;12.146;2022-11-20T16:27:46;7.30;99.90
4090;DHT22;2059;48.538;12.146;2022-11-20T16:32:49;7.40;99.90
4090;DHT22;2059;48.538;12.146;2022-11-20T16:37:51;7.40;99.90
4090;DHT22;2059;48.538;12.146;2022-11-20T16:42:53;7.00;99.90
4090;DHT22;2059;48.538;12.146;2022-11-20T16:47:56;7.00;99.90
4090;DHT22;2059;48.538;12.146;2022-11-20T16:52:58;7.20;99.90
4090;DHT22;2059;48.538;12.146;2022-11-20T16:58:00;7.20;99.90
4090;DHT22;2059;48.538;12.146;2022-11-20T17:03:04;7.20;99.90
4090;DHT22;2059;48.538;12.146;2022-11-20T17:08:06;7.00;99.90
4090;DHT22;2059;48.538;12.146;2022-11-20T17:13:07;7.10;99.90
4090;DHT22;2059;48.538;12.146;2022-11-20T17:18:11;7.30;99.90
4090;DHT22;2059;48.538;12.146;2022-11-20T17:23:13;7.30;99.90
4090;DHT22;2059;48.538;12.146;2022-11-20T17:28:14;7.30;99.90
4090;DHT22;2059;48.538;12.146;2022-11-20T17:33:18;7.20;99.90
4090;DHT22;2059;48.538;12.146;2022-11-20T17:38:20;7.00;99.90
4090;DHT22;2059;48.538;12.146;2022-11-20T17:43:21;7.10;99.90
4090;DHT22;2059;48.538;12.146;2022-11-20T17:48:25;7.00;99.90
4090;DHT22;2059;48.538;12.146;2022-11-20T17:53:31;6.90;99.90
4090;DHT22;2059;48.538;12.146;2022-11-20T17:58:33;6.80;99.90
4090;DHT22;2059;48.538;12.146;2022-11-20T18:03:37;6.90;99.90
4090;DHT22;2059;48.538;12.146;2022-11-20T18:08:39;6.70;99.90
4090;DHT22;2059;48.538;12.146;2022-11-20T18:13:42;6.60;99.90
4090;DHT22;2059;48.538;12.146;2022-11-20T18:19:03;6.90;99.90
4090;DHT22;2059;48.538;12.146;2022-11-20T18:24:06;6.90;99.90
4090;DHT22;2059;48.538;12.146;2022-11-20T18:29:08;6.90;99.90
4090;DHT22;2059;48.538;12.146;2022-11-20T18:34:11;6.80;99.90
4090;DHT22;2059;48.538;12.146;2022-11-20T18:39:13;7.00;99.90
4090;DHT22;2059;48.538;12.146;2022-11-20T18:44:17;6.80;99.90
4090;DHT22;2059;48.538;12.146;2022-11-20T18:49:38;6.70;99.90
4090;DHT22;2059;48.538;12.146;2022-11-20T18:54:40;6.70;99.90
4090;DHT22;2059;48.538;12.146;2022-11-20T18:59:42;6.60;99.90
4090;DHT22;2059;48.538;12.146;2022-11-20T19:04:45;6.60;99.90
4090;DHT22;2059;48.538;12.146;2022-11-20T19:09:50;6.60;99.90
4090;DHT22;2059;48.538;12.146;2022-11-20T19:14:53;6.50;99.90
4090;DHT22;2059;48.538;12.146;2022-11-20T19:19:56;6.40;99.90
4090;DHT22;2059;48.538;12.146;2022-11-20T19:25:01;6.50;99.90
4090;DHT22;2059;48.538;12.146;2022-11-20T19:30:03;6.50;99.90
4090;DHT22;2059;48.538;12.146;2022-11-20T19:35:07;6.50;99.90
4090;DHT22;2059;48.538;12.146;2022-11-20T19:40:09;6.40;99.90
4090;DHT22;2059;48.538;12.146;2022-11-20T19:45:11;6.40;99.90
4090;DHT22;2059;48.538;12.146;2022-11-20T19:50:15;6.40;99.90
4090;DHT22;2059;48.538;12.146;2022-11-20T19:55:17;6.30;99.90
4090;DHT22;2059;48.538;12.146;2022-11-20T20:00:19;6.40;99.90
4090;DHT22;2059;48.538;12.146;2022-11-20T20:05:22;6.30;99.90
4090;DHT22;2059;48.538;12.146;2022-11-20T20:10:24;6.40;99.90
4090;DHT22;2059;48.538;12.146;2022-11-20T20:15:26;6.40;99.90
4090;DHT22;2059;48.538;12.146;2022-11-20T20:20:29;6.20;99.90
4090;DHT22;2059;48.538;12.146;2022-11-20T20:25:35;6.20;99.90
4090;DHT22;2059;48.538;12.146;2022-11-20T20:30:37;6.10;99.90
4090;DHT22;2059;48.538;12.146;2022-11-20T20:35:41;6.30;99.90
4090;DHT22;2059;48.538;12.146;2022-11-20T20:40:46;6.30;99.90
4090;DHT22;2059;48.538;12.146;2022-11-20T20:45:50;6.40;99.90
4090;DHT22;2059;48.538;12.146;2022-11-20T20:50:54;6.30;99.90
4090;DHT22;2059;48.538;12.146;2022-11-20T20:55:58;6.30;99.90
4090;DHT22;2059;48.538;12.146;2022-11-20T21:01:00;6.30;99.90
4090;DHT22;2059;48.538;12.146;2022-11-20T21:06:05;6.30;99.90
4090;DHT22;2059;48.538;12.146;2022-11-20T21:11:09;6.20;99.90
4090;DHT22;2059;48.538;12.146;2022-11-20T21:16:13;6.30;99.90
4090;DHT22;2059;48.538;12.146;2022-11-20T21:21:16;6.20;99.90
4090;DHT22;2059;48.538;12.146;2022-11-20T21:26:35;6.30;99.90
4090;DHT22;2059;48.538;12.146;2022-11-20T21:31:38;6.30;99.90
4090;DHT22;2059;48.538;12.146;2022-11-20T21:36:42;6.50;99.90
4090;DHT22;2059;48.538;12.146;2022-11-20T21:41:44;6.50;99.90
4090;DHT22;2059;48.538;12.146;2022-11-20T21:46:45;6.50;99.90
4090;DHT22;2059;48.538;12.146;2022-11-20T21:51:49;6.40;99.90
4090;DHT22;2059;48.538;12.146;2022-11-20T21:56:51;6.40;99.90
4090;DHT22;2059;48.538;12.146;2022-11-20T22:01:53;6.50;99.90
4090;DHT22;2059;48.538;12.146;2022-11-20T22:06:56;6.20;99.90
4090;DHT22;2059;48.538;12.146;2022-11-20T22:11:58;6.20;99.90
4090;DHT22;2059;48.538;12.146;2022-11-20T22:17:02;5.90;99.90
4090;DHT22;2059;48.538;12.146;2022-11-20T22:22:06;6.00;99.90
4090;DHT22;2059;48.538;12.146;2022-11-20T22:27:09;6.10;99.90
4090;DHT22;2059;48.538;12.146;2022-11-20T22:32:11;6.00;99.90
4090;DHT22;2059;48.538;12.146;2022-11-20T22:42:25;5.80;99.90
4090;DHT22;2059;48.538;12.146;2022-11-20T22:47:27;5.80;99.90
4090;DHT22;2059;48.538;12.146;2022-11-20T22:52:28;5.60;99.90
4090;DHT22;2059;48.538;12.146;2022-11-20T22:57:32;5.60;99.90
4090;DHT22;2059;48.538;12.146;2022-11-20T23:02:34;5.90;99.90
4090;DHT22;2059;48.538;12.146;2022-11-20T23:07:36;5.70;99.90
4090;DHT22;2059;48.538;12.146;2022-11-20T23:12:39;5.90;99.90
4090;DHT22;2059;48.538;12.146;2022-11-20T23:17:41;6.00;99.90
4090;DHT22;2059;48.538;12.146;2022-11-20T23:22:43;6.00;99.90
4090;DHT22;2059;48.538;12.146;2022-11-20T23:27:46;5.90;99.90
4090;DHT22;2059;48.538;12.146;2022-11-20T23:32:48;5.80;99.90
4090;DHT22;2059;48.538;12.146;2022-11-20T23:37:50;5.80;99.90
4090;DHT22;2059;48.538;12.146;2022-11-20T23:42:53;5.70;99.90
4090;DHT22;2059;48.538;12.146;2022-11-20T23:48:13;5.60;99.90
4090;DHT22;2059;48.538;12.146;2022-11-20T23:53:16;5.60;99.90
4090;DHT22;2059;48.538;12.146;2022-11-20T23:58:22;5.50;99.90
